Alloway, New Jersey
Current Conditions -  °F | °C
As of 10:53 AM on Wednesday 26 Nov 2014 (Local Time) from KILG Reporting Station
Moderate Rain Moderate Rain  
Wind Chill: 29°   Ceiling: 500
Heat Index: 35°   Visibility: 2.5mi
Dew Point: 33°   Wind: 8mph
Humidity: 92%   Direction: 360°N
Pressure: 30.05"   Gusts: NA
Location:  39.56°N, 75.36°W
Report Text: KILG 261553Z 36007KT 2 1/2SM RA BR OVC005 02/01 A3005 RMK AO2 CIG 005V009 P0000 T00170006
Loading
Personal Weather Stations






























Interactive Weather Map New forecast layout! Learn more

10-Day Weather Forecast

Advertisements
Track Severe Weather on mobile